createdAt,value
2022-07-25T00:01:46.034Z,18.55
2022-07-25T00:04:13.205Z,18.53
2022-07-25T00:06:42.769Z,18.47
2022-07-25T00:09:10.248Z,18.46
2022-07-25T00:11:37.291Z,18.42
2022-07-25T00:14:05.351Z,18.44
2022-07-25T00:16:32.699Z,18.41
2022-07-25T00:18:59.992Z,18.39
2022-07-25T00:21:27.249Z,18.36
2022-07-25T00:23:54.096Z,18.37
2022-07-25T00:26:20.894Z,18.33
2022-07-25T00:28:47.802Z,18.30
2022-07-25T00:31:14.673Z,18.32
2022-07-25T00:33:41.551Z,18.28
2022-07-25T00:36:09.116Z,18.28
2022-07-25T00:38:36.040Z,18.29
2022-07-25T00:41:04.682Z,18.27
2022-07-25T00:43:31.992Z,18.19
2022-07-25T00:45:59.578Z,18.18
2022-07-25T00:48:28.604Z,18.15
2022-07-25T00:50:57.090Z,18.16
2022-07-25T00:53:24.597Z,18.15
2022-07-25T00:55:52.640Z,18.12
2022-07-25T00:58:19.615Z,18.02
2022-07-25T01:00:47.687Z,18.01
2022-07-25T01:03:15.315Z,17.93
2022-07-25T01:05:42.577Z,17.83
2022-07-25T01:08:09.873Z,17.82
2022-07-25T01:10:36.950Z,17.78
2022-07-25T01:13:03.915Z,17.69
2022-07-25T01:15:30.927Z,17.62
2022-07-25T01:17:57.903Z,17.59
2022-07-25T01:20:27.350Z,17.57
2022-07-25T01:22:54.679Z,17.52
2022-07-25T01:25:21.944Z,17.56
2022-07-25T01:27:55.189Z,17.49
2022-07-25T01:30:24.309Z,17.71
2022-07-25T01:32:51.404Z,17.73
2022-07-25T01:35:18.422Z,17.71
2022-07-25T01:37:45.465Z,17.74
2022-07-25T01:40:13.346Z,17.67
2022-07-25T01:42:40.223Z,17.78
2022-07-25T01:45:07.721Z,17.83
2022-07-25T01:47:34.703Z,17.78
2022-07-25T01:50:01.602Z,17.75
2022-07-25T01:52:28.810Z,17.71
2022-07-25T01:54:55.740Z,17.62
2022-07-25T01:57:24.370Z,17.58
2022-07-25T01:59:58.212Z,17.55
2022-07-25T02:02:25.387Z,17.48
2022-07-25T02:04:52.298Z,17.46
2022-07-25T02:07:19.345Z,17.47
2022-07-25T02:09:46.273Z,17.44
2022-07-25T02:12:13.157Z,17.43
2022-07-25T02:14:40.075Z,17.41
2022-07-25T02:17:07.023Z,17.39
2022-07-25T02:19:34.067Z,17.42
2022-07-25T02:22:01.123Z,17.42
2022-07-25T02:24:28.130Z,17.44
2022-07-25T02:26:54.939Z,17.44
2022-07-25T02:29:22.302Z,17.46
2022-07-25T02:31:49.380Z,17.47
2022-07-25T02:34:16.368Z,17.45
2022-07-25T02:36:43.527Z,17.40
2022-07-25T02:39:10.544Z,17.35
2022-07-25T02:41:37.464Z,17.33
2022-07-25T02:44:05.615Z,17.26
2022-07-25T02:46:33.756Z,17.21
2022-07-25T02:49:01.044Z,17.19
2022-07-25T02:51:28.087Z,17.21
2022-07-25T02:53:57.775Z,17.21
2022-07-25T02:56:25.641Z,17.19
2022-07-25T02:58:52.588Z,17.23
2022-07-25T03:01:19.439Z,17.28
2022-07-25T03:03:46.439Z,17.40
2022-07-25T03:06:13.442Z,17.49
2022-07-25T03:08:40.251Z,17.51
2022-07-25T03:11:07.124Z,17.66
2022-07-25T03:13:34.064Z,17.71
2022-07-25T03:16:00.974Z,17.77
2022-07-25T03:18:27.845Z,17.90
2022-07-25T03:20:54.770Z,18.05
2022-07-25T03:23:21.928Z,18.09
2022-07-25T03:25:48.793Z,18.18
2022-07-25T03:28:15.715Z,18.28
2022-07-25T03:30:42.579Z,18.35
2022-07-25T03:33:09.427Z,18.48
2022-07-25T03:35:38.242Z,18.56
2022-07-25T03:38:05.047Z,18.67
2022-07-25T03:40:31.886Z,18.74
2022-07-25T03:42:58.818Z,18.87
2022-07-25T03:45:25.844Z,18.99
2022-07-25T03:47:52.675Z,19.11
2022-07-25T03:50:19.582Z,19.19
2022-07-25T03:52:46.464Z,19.36
2022-07-25T03:55:13.367Z,19.48
2022-07-25T03:57:40.305Z,19.59
2022-07-25T04:00:09.100Z,19.63
2022-07-25T04:02:36.761Z,19.77
2022-07-25T04:05:04.909Z,19.88
2022-07-25T04:07:31.963Z,19.95
2022-07-25T04:09:58.826Z,20.05
2022-07-25T04:12:25.824Z,20.15
2022-07-25T04:14:52.646Z,20.22
2022-07-25T04:17:19.508Z,20.37
2022-07-25T04:19:47.934Z,20.50
2022-07-25T04:22:15.094Z,20.59
2022-07-25T04:24:41.942Z,20.66
2022-07-25T04:27:08.922Z,20.74
2022-07-25T04:29:35.841Z,20.82
2022-07-25T04:32:02.740Z,20.84
2022-07-25T04:34:29.781Z,20.88
2022-07-25T04:36:56.613Z,21.01
2022-07-25T04:39:23.501Z,20.99
2022-07-25T04:41:50.451Z,21.05
2022-07-25T04:44:17.311Z,21.07
2022-07-25T04:49:10.907Z,21.18
2022-07-25T04:51:37.714Z,21.24
2022-07-25T04:54:05.150Z,21.35
2022-07-25T04:56:32.328Z,21.47
2022-07-25T04:59:04.685Z,21.50
2022-07-25T05:01:33.556Z,21.70
2022-07-25T05:04:00.435Z,21.74
2022-07-25T05:06:27.295Z,21.77
2022-07-25T05:08:54.418Z,21.91
2022-07-25T05:11:21.293Z,22.04
2022-07-25T05:13:48.175Z,22.18
2022-07-25T05:16:15.139Z,22.25
2022-07-25T05:18:42.022Z,22.30
2022-07-25T05:21:11.437Z,22.37
2022-07-25T05:23:38.287Z,22.48
2022-07-25T05:26:05.307Z,22.60
2022-07-25T05:28:32.154Z,22.70
2022-07-25T05:30:59.138Z,22.72
2022-07-25T05:33:26.024Z,22.80
2022-07-25T05:35:52.982Z,22.87
2022-07-25T05:38:20.056Z,22.95
2022-07-25T05:40:47.004Z,23.05
2022-07-25T05:43:13.755Z,23.20
2022-07-25T05:45:40.623Z,23.33
2022-07-25T05:48:07.394Z,23.48
2022-07-25T05:50:36.545Z,23.54
2022-07-25T05:53:03.558Z,23.49
2022-07-25T05:55:30.393Z,23.56
2022-07-25T05:57:57.234Z,23.59
2022-07-25T06:00:24.379Z,23.58
2022-07-25T06:02:51.406Z,23.66
2022-07-25T06:05:18.414Z,23.74
2022-07-25T06:07:46.260Z,23.84
2022-07-25T06:10:13.041Z,23.89
2022-07-25T06:12:39.859Z,23.96
2022-07-25T06:15:07.811Z,24.09
2022-07-25T06:17:39.590Z,24.16
2022-07-25T06:20:07.502Z,24.24
2022-07-25T06:22:34.385Z,24.26
2022-07-25T06:25:04.537Z,24.30
2022-07-25T06:27:31.377Z,24.40
2022-07-25T06:29:58.444Z,24.48
2022-07-25T06:32:25.279Z,24.55
2022-07-25T06:34:52.218Z,24.62
2022-07-25T06:37:19.318Z,24.70
2022-07-25T06:39:46.382Z,24.64
2022-07-25T06:42:13.358Z,24.58
2022-07-25T06:44:41.022Z,24.51
2022-07-25T06:47:08.129Z,24.40
2022-07-25T06:49:34.966Z,24.51
2022-07-25T06:52:02.142Z,24.62
2022-07-25T06:54:28.904Z,24.83
2022-07-25T06:56:55.733Z,24.85
2022-07-25T06:59:24.010Z,24.81
2022-07-25T07:01:51.766Z,24.76
2022-07-25T07:04:19.047Z,24.74
2022-07-25T07:06:46.088Z,24.68
2022-07-25T07:09:12.996Z,24.64
2022-07-25T07:11:39.907Z,24.77
2022-07-25T07:14:07.165Z,24.95
2022-07-25T07:16:34.336Z,25.09
2022-07-25T07:19:01.163Z,25.00
2022-07-25T07:21:28.085Z,24.89
2022-07-25T07:23:56.121Z,24.89
2022-07-25T07:26:23.860Z,24.89
2022-07-25T07:28:51.621Z,24.86
2022-07-25T07:31:18.717Z,24.92
2022-07-25T07:33:45.928Z,25.06
2022-07-25T07:36:12.997Z,25.18
2022-07-25T07:38:39.807Z,25.24
2022-07-25T07:41:06.664Z,25.17
2022-07-25T07:43:33.607Z,25.20
2022-07-25T07:46:01.511Z,25.15
2022-07-25T07:48:30.462Z,25.26
2022-07-25T07:50:58.616Z,25.39
2022-07-25T07:53:25.643Z,25.50
2022-07-25T07:55:52.423Z,25.34
2022-07-25T07:58:19.747Z,25.27
2022-07-25T08:00:48.895Z,25.21
2022-07-25T08:03:20.961Z,25.14
2022-07-25T08:05:48.784Z,25.12
2022-07-25T08:08:16.199Z,25.27
2022-07-25T08:10:45.975Z,25.26
2022-07-25T08:13:18.057Z,25.29
2022-07-25T08:15:48.112Z,25.54
2022-07-25T08:18:17.483Z,25.72
2022-07-25T08:20:49.132Z,25.73
2022-07-25T08:23:17.178Z,25.90
2022-07-25T08:25:44.932Z,26.00
2022-07-25T08:28:12.533Z,26.10
2022-07-25T08:30:40.932Z,26.14
2022-07-25T08:33:10.252Z,26.10
2022-07-25T08:35:37.179Z,25.97
2022-07-25T08:38:05.009Z,25.96
2022-07-25T08:40:33.882Z,25.98
2022-07-25T08:43:01.263Z,26.14
2022-07-25T08:45:28.886Z,26.27
2022-07-25T08:47:56.642Z,26.35
2022-07-25T08:50:26.736Z,26.31
2022-07-25T08:53:16.126Z,26.23
2022-07-25T08:55:41.986Z,26.18
2022-07-25T08:58:11.578Z,26.12
2022-07-25T09:00:38.861Z,26.15
2022-07-25T09:03:06.588Z,26.40
2022-07-25T09:05:37.069Z,26.54
2022-07-25T09:08:13.891Z,26.62
2022-07-25T09:10:49.612Z,26.73
2022-07-25T09:13:18.086Z,26.72
2022-07-25T09:15:55.108Z,26.69
2022-07-25T09:18:27.416Z,26.59
2022-07-25T09:20:58.874Z,26.60
2022-07-25T09:23:33.548Z,26.81
2022-07-25T09:26:06.484Z,26.76
2022-07-25T09:28:40.782Z,26.80
2022-07-25T09:31:07.696Z,26.95
2022-07-25T09:33:34.625Z,26.99
2022-07-25T09:36:11.430Z,27.03
2022-07-25T09:38:38.474Z,26.95
2022-07-25T09:41:05.763Z,26.95
2022-07-25T09:43:42.930Z,26.86
2022-07-25T09:46:11.130Z,26.75
2022-07-25T09:48:40.027Z,26.86
2022-07-25T09:51:07.734Z,26.82
2022-07-25T09:53:34.816Z,26.70
2022-07-25T09:56:02.230Z,26.57
2022-07-25T09:58:29.967Z,26.49
2022-07-25T10:01:03.965Z,26.64
2022-07-25T10:03:53.171Z,26.74
2022-07-25T10:06:39.353Z,26.64
2022-07-25T10:09:13.875Z,26.59
2022-07-25T10:11:41.223Z,26.53
2022-07-25T10:14:12.696Z,26.49
2022-07-25T10:16:47.486Z,26.47
2022-07-25T10:19:15.308Z,26.50
2022-07-25T10:21:42.120Z,26.57
2022-07-25T10:24:10.834Z,26.71
2022-07-25T10:26:39.553Z,26.64
2022-07-25T10:29:11.659Z,26.60
2022-07-25T10:31:49.371Z,26.50
2022-07-25T10:34:29.334Z,26.48
2022-07-25T10:36:56.143Z,26.46
2022-07-25T10:39:23.339Z,26.49
2022-07-25T10:41:56.213Z,26.44
2022-07-25T10:44:23.314Z,26.37
2022-07-25T10:46:50.272Z,26.40
2022-07-25T10:49:31.148Z,26.44
2022-07-25T10:52:03.304Z,26.65
2022-07-25T10:54:36.343Z,26.72
2022-07-25T10:57:05.340Z,26.88
2022-07-25T10:59:39.714Z,27.03
2022-07-25T11:02:11.529Z,27.08
2022-07-25T11:04:38.413Z,27.07
2022-07-25T11:07:14.247Z,27.05
2022-07-25T11:09:43.254Z,27.07
2022-07-25T11:12:14.946Z,27.13
2022-07-25T11:14:43.011Z,27.00
2022-07-25T11:17:17.039Z,26.93
2022-07-25T11:19:52.921Z,26.92
2022-07-25T11:22:20.194Z,26.99
2022-07-25T11:24:47.798Z,27.02
2022-07-25T11:27:23.462Z,26.99
2022-07-25T11:29:50.512Z,26.99
2022-07-25T11:32:18.465Z,27.07
2022-07-25T11:34:52.986Z,27.06
2022-07-25T11:37:21.218Z,27.10
2022-07-25T11:39:48.727Z,27.18
2022-07-25T11:42:19.931Z,27.25
2022-07-25T11:44:52.235Z,27.35
2022-07-25T11:47:30.381Z,27.45
2022-07-25T11:49:59.928Z,27.48
2022-07-25T11:52:32.333Z,27.50
2022-07-25T11:55:06.164Z,27.49
2022-07-25T11:57:38.455Z,27.42
2022-07-25T12:00:10.483Z,27.40
2022-07-25T12:02:38.268Z,27.30
2022-07-25T12:05:08.033Z,27.40
2022-07-25T12:07:46.475Z,27.42
2022-07-25T12:10:19.359Z,27.51
2022-07-25T12:12:48.233Z,27.54
2022-07-25T12:15:17.474Z,27.57
2022-07-25T12:17:44.462Z,27.62
2022-07-25T12:20:15.221Z,27.56
2022-07-25T12:22:42.604Z,27.56
2022-07-25T12:25:11.264Z,27.56
2022-07-25T12:27:38.706Z,27.60
2022-07-25T12:30:07.170Z,27.65
2022-07-25T12:32:35.164Z,27.78
2022-07-25T12:35:02.616Z,27.81
2022-07-25T12:37:29.523Z,27.78
2022-07-25T12:39:56.686Z,27.77
2022-07-25T12:42:23.930Z,27.79
2022-07-25T12:44:50.888Z,27.79
2022-07-25T12:47:17.967Z,27.82
2022-07-25T12:49:44.889Z,27.89
2022-07-25T12:52:11.943Z,27.87
2022-07-25T12:54:39.271Z,27.87
2022-07-25T12:57:07.291Z,27.85
2022-07-25T12:59:34.257Z,27.99
2022-07-25T13:02:01.452Z,28.06
2022-07-25T13:04:28.523Z,28.09
2022-07-25T13:06:56.324Z,28.10
2022-07-25T13:09:23.914Z,28.12
2022-07-25T13:11:51.736Z,28.15
2022-07-25T13:14:18.967Z,28.24
2022-07-25T13:16:47.207Z,28.15
2022-07-25T13:19:15.313Z,28.01
2022-07-25T13:21:42.930Z,28.08
2022-07-25T13:24:10.632Z,28.12
2022-07-25T13:26:38.433Z,28.02
2022-07-25T13:29:06.138Z,28.00
2022-07-25T13:31:33.295Z,28.03
2022-07-25T13:34:01.635Z,28.04
2022-07-25T13:36:28.532Z,28.01
2022-07-25T13:38:55.636Z,27.96
2022-07-25T13:41:23.522Z,27.93
2022-07-25T13:43:50.463Z,27.94
2022-07-25T13:46:17.987Z,27.93
2022-07-25T13:48:45.003Z,27.93
2022-07-25T13:51:12.419Z,27.91
2022-07-25T13:53:39.363Z,27.96
2022-07-25T13:56:06.427Z,27.95
2022-07-25T13:58:33.357Z,27.93
2022-07-25T14:01:00.491Z,27.94
2022-07-25T14:03:27.411Z,27.93
2022-07-25T14:05:54.355Z,27.94
2022-07-25T14:08:21.353Z,27.95
2022-07-25T14:10:48.447Z,27.99
2022-07-25T14:13:15.298Z,28.02
2022-07-25T14:15:42.414Z,28.00
2022-07-25T14:18:09.340Z,28.03
2022-07-25T14:20:36.285Z,28.00
2022-07-25T14:23:03.285Z,28.04
2022-07-25T14:25:30.176Z,28.05
2022-07-25T14:27:57.028Z,28.11
2022-07-25T14:30:24.051Z,28.14
2022-07-25T14:32:50.962Z,28.17
2022-07-25T14:35:17.870Z,28.28
2022-07-25T14:37:44.773Z,28.26
2022-07-25T14:40:12.486Z,28.20
2022-07-25T14:42:40.778Z,28.36
2022-07-25T14:45:08.809Z,28.49
2022-07-25T14:47:35.784Z,28.52
2022-07-25T14:50:02.744Z,28.51
2022-07-25T14:52:29.685Z,28.48
2022-07-25T14:54:56.550Z,28.47
2022-07-25T14:57:23.462Z,28.48
2022-07-25T14:59:50.933Z,28.39
2022-07-25T15:02:17.840Z,28.32
2022-07-25T15:04:44.831Z,28.33
2022-07-25T15:07:12.036Z,28.38
2022-07-25T15:09:39.042Z,28.30
2022-07-25T15:12:06.198Z,28.26
2022-07-25T15:14:33.157Z,28.28
2022-07-25T15:17:00.085Z,28.26
2022-07-25T15:19:27.103Z,28.22
2022-07-25T15:21:54.195Z,28.06
2022-07-25T15:24:23.592Z,27.94
2022-07-25T15:26:54.057Z,27.88
2022-07-25T15:29:21.162Z,27.80
2022-07-25T15:31:49.442Z,27.79
2022-07-25T15:34:16.433Z,27.74
2022-07-25T15:36:43.372Z,27.62
2022-07-25T15:39:10.511Z,27.61
2022-07-25T15:41:37.588Z,27.62
2022-07-25T15:44:05.032Z,27.61
2022-07-25T15:46:31.940Z,27.55
2022-07-25T15:48:58.932Z,27.51
2022-07-25T15:51:25.977Z,27.46
2022-07-25T15:53:52.834Z,27.39
2022-07-25T15:56:19.689Z,27.31
2022-07-25T15:58:49.107Z,27.20
2022-07-25T16:01:16.033Z,27.16
2022-07-25T16:03:43.203Z,27.14
2022-07-25T16:06:10.368Z,27.03
2022-07-25T16:08:37.366Z,26.99
2022-07-25T16:11:04.711Z,26.94
2022-07-25T16:13:32.079Z,26.90
2022-07-25T16:15:59.053Z,26.83
2022-07-25T16:18:25.970Z,26.76
2022-07-25T16:20:53.219Z,26.65
2022-07-25T16:23:20.084Z,26.66
2022-07-25T16:25:47.151Z,26.58
2022-07-25T16:28:14.257Z,26.56
2022-07-25T16:30:41.109Z,26.44
2022-07-25T16:33:08.002Z,26.38
2022-07-25T16:35:34.937Z,26.29
2022-07-25T16:38:03.423Z,26.22
2022-07-25T16:40:30.988Z,26.12
2022-07-25T16:42:58.566Z,26.05
2022-07-25T16:45:26.687Z,25.97
2022-07-25T16:47:53.532Z,25.87
2022-07-25T16:50:21.171Z,25.76
2022-07-25T16:52:48.079Z,25.72
2022-07-25T16:55:14.867Z,25.64
2022-07-25T16:57:41.801Z,25.59
2022-07-25T17:00:09.821Z,25.54
2022-07-25T17:02:36.854Z,25.47
2022-07-25T17:05:04.351Z,25.41
2022-07-25T17:07:31.995Z,25.35
2022-07-25T17:09:58.862Z,25.27
2022-07-25T17:12:25.965Z,25.15
2022-07-25T17:14:52.901Z,25.06
2022-07-25T17:17:19.741Z,24.97
2022-07-25T17:19:46.698Z,24.90
2022-07-25T17:22:13.546Z,24.87
2022-07-25T17:24:41.019Z,24.81
2022-07-25T17:27:09.036Z,24.82
2022-07-25T17:29:36.845Z,24.74
2022-07-25T17:32:04.772Z,24.70
2022-07-25T17:34:31.757Z,24.66
2022-07-25T17:36:59.383Z,24.55
2022-07-25T17:39:26.195Z,24.54
2022-07-25T17:41:53.121Z,24.52
2022-07-25T17:44:20.457Z,24.44
2022-07-25T17:46:47.657Z,24.35
2022-07-25T17:49:14.966Z,24.30
2022-07-25T17:51:42.020Z,24.28
2022-07-25T17:54:09.538Z,24.24
2022-07-25T17:56:37.824Z,24.21
2022-07-25T17:59:05.199Z,24.19
2022-07-25T18:01:32.197Z,24.14
2022-07-25T18:03:59.278Z,24.13
2022-07-25T18:06:29.703Z,24.05
2022-07-25T18:08:57.463Z,24.05
2022-07-25T18:11:24.531Z,24.02
2022-07-25T18:13:51.458Z,23.99
2022-07-25T18:16:18.514Z,23.95
2022-07-25T18:18:45.699Z,23.93
2022-07-25T18:21:12.623Z,23.89
2022-07-25T18:23:39.472Z,23.85
2022-07-25T18:26:06.390Z,23.77
2022-07-25T18:28:33.656Z,23.72
2022-07-25T18:31:00.595Z,23.69
2022-07-25T18:33:27.659Z,23.67
2022-07-25T18:35:54.468Z,23.73
2022-07-25T18:38:21.348Z,23.67
2022-07-25T18:40:51.619Z,23.63
2022-07-25T18:43:24.569Z,23.57
2022-07-25T18:45:53.839Z,23.55
2022-07-25T18:48:20.772Z,23.50
2022-07-25T18:50:47.604Z,23.43
2022-07-25T18:53:14.497Z,23.44
2022-07-25T18:55:41.777Z,23.41
2022-07-25T18:58:08.886Z,23.35
2022-07-25T19:00:36.312Z,23.35
2022-07-25T19:03:03.224Z,23.25
2022-07-25T19:05:30.107Z,23.23
2022-07-25T19:07:59.845Z,23.25
2022-07-25T19:10:26.704Z,23.16
2022-07-25T19:12:53.558Z,23.15
2022-07-25T19:15:20.607Z,23.08
2022-07-25T19:17:47.465Z,23.05
2022-07-25T19:20:14.846Z,23.02
2022-07-25T19:22:41.728Z,23.00
2022-07-25T19:25:08.836Z,22.94
2022-07-25T19:27:35.921Z,22.88
2022-07-25T19:30:03.259Z,22.81
2022-07-25T19:32:30.106Z,22.83
2022-07-25T19:34:56.956Z,22.77
2022-07-25T19:37:23.913Z,22.67
2022-07-25T19:39:50.839Z,22.62
2022-07-25T19:42:17.658Z,22.56
2022-07-25T19:44:44.506Z,22.51
2022-07-25T19:47:12.000Z,22.46
2022-07-25T19:49:39.910Z,22.38
2022-07-25T19:52:10.439Z,22.40
2022-07-25T19:54:38.196Z,22.42
2022-07-25T19:57:05.431Z,22.36
2022-07-25T19:59:32.443Z,22.29
2022-07-25T20:01:59.503Z,22.26
2022-07-25T20:04:26.470Z,22.27
2022-07-25T20:06:53.304Z,22.25
2022-07-25T20:09:20.720Z,22.21
2022-07-25T20:11:47.721Z,22.16
2022-07-25T20:14:14.678Z,22.08
2022-07-25T20:16:41.674Z,22.05
2022-07-25T20:19:10.153Z,21.97
2022-07-25T20:21:38.364Z,21.90
2022-07-25T20:24:05.442Z,21.87
2022-07-25T20:26:32.292Z,21.83
2022-07-25T20:28:59.337Z,21.78
2022-07-25T20:31:26.249Z,21.73
2022-07-25T20:33:53.109Z,21.70
2022-07-25T20:36:20.538Z,21.65
2022-07-25T20:38:47.676Z,21.59
2022-07-25T20:41:15.449Z,21.59
2022-07-25T20:43:42.596Z,21.53
2022-07-25T20:46:09.670Z,21.53
2022-07-25T20:48:36.778Z,21.53
2022-07-25T20:51:04.033Z,21.47
2022-07-25T20:53:30.919Z,21.43
2022-07-25T20:55:57.764Z,21.41
2022-07-25T20:58:24.658Z,21.39
2022-07-25T21:00:51.651Z,21.41
2022-07-25T21:03:18.595Z,21.40
2022-07-25T21:05:45.650Z,21.40
2022-07-25T21:08:12.502Z,21.39
2022-07-25T21:10:39.546Z,21.38
2022-07-25T21:13:06.471Z,21.38
2022-07-25T21:15:33.480Z,21.31
2022-07-25T21:18:00.929Z,21.31
2022-07-25T21:20:27.923Z,21.27
2022-07-25T21:22:54.798Z,21.29
2022-07-25T21:25:22.039Z,21.29
2022-07-25T21:27:49.088Z,21.31
2022-07-25T21:30:16.057Z,21.26
2022-07-25T21:32:42.945Z,21.24
2022-07-25T21:35:09.942Z,21.26
2022-07-25T21:37:36.897Z,21.31
2022-07-25T21:40:04.825Z,21.24
2022-07-25T21:42:31.760Z,21.15
2022-07-25T21:44:58.559Z,21.12
2022-07-25T21:47:25.410Z,21.05
2022-07-25T21:49:52.899Z,21.00
2022-07-25T21:52:26.614Z,20.94
2022-07-25T21:55:01.865Z,20.92
2022-07-25T21:57:28.743Z,20.89
2022-07-25T21:59:55.910Z,20.89
2022-07-25T22:02:23.095Z,20.82
2022-07-25T22:04:50.252Z,20.74
2022-07-25T22:07:17.100Z,20.73
2022-07-25T22:09:44.158Z,20.68
2022-07-25T22:12:11.134Z,20.59
2022-07-25T22:14:37.949Z,20.58
2022-07-25T22:17:05.291Z,20.56
2022-07-25T22:19:32.617Z,20.47
2022-07-25T22:21:59.453Z,20.52
2022-07-25T22:24:26.440Z,20.46
2022-07-25T22:26:53.322Z,20.47
2022-07-25T22:29:20.197Z,20.42
2022-07-25T22:31:47.816Z,20.35
2022-07-25T22:34:14.787Z,20.32
2022-07-25T22:36:41.619Z,20.28
2022-07-25T22:39:08.934Z,20.26
2022-07-25T22:41:36.185Z,20.20
2022-07-25T22:44:03.125Z,20.18
2022-07-25T22:46:31.569Z,20.21
2022-07-25T22:48:59.155Z,20.13
2022-07-25T22:51:26.501Z,20.11
2022-07-25T22:53:54.032Z,20.11
2022-07-25T22:56:21.773Z,20.10
2022-07-25T22:58:49.030Z,20.08
2022-07-25T23:01:17.122Z,20.08
2022-07-25T23:03:44.166Z,20.06
2022-07-25T23:06:11.087Z,20.03
2022-07-25T23:08:37.989Z,20.04
2022-07-25T23:11:05.209Z,20.05
2022-07-25T23:13:33.243Z,20.02
2022-07-25T23:16:00.329Z,19.95
2022-07-25T23:18:28.744Z,19.89
2022-07-25T23:20:55.552Z,19.83
2022-07-25T23:23:22.451Z,19.79
2022-07-25T23:25:49.315Z,19.73
2022-07-25T23:28:16.129Z,19.71
2022-07-25T23:30:43.015Z,19.68
2022-07-25T23:33:09.907Z,19.66
2022-07-25T23:35:36.859Z,19.61
2022-07-25T23:38:04.121Z,19.62
2022-07-25T23:40:31.044Z,19.58
2022-07-25T23:42:57.869Z,19.52
2022-07-25T23:45:27.906Z,19.48
2022-07-25T23:47:56.018Z,19.47
2022-07-25T23:50:23.564Z,19.47
2022-07-25T23:52:50.545Z,19.48
2022-07-25T23:55:17.543Z,19.46
2022-07-25T23:57:44.461Z,19.47
